sensor_id;sensor_type;location;lat;lon;timestamp;P1;durP1;ratioP1;P2;durP2;ratioP2
73359;SDS011;63092;43.582;19.528;2023-01-28T00:01:50;17.63;;;8.95;;
73359;SDS011;63092;43.582;19.528;2023-01-28T00:04:15;16.75;;;8.60;;
73359;SDS011;63092;43.582;19.528;2023-01-28T00:06:42;12.57;;;7.38;;
73359;SDS011;63092;43.582;19.528;2023-01-28T00:09:08;13.95;;;7.00;;
73359;SDS011;63092;43.582;19.528;2023-01-28T00:11:33;12.50;;;6.53;;
73359;SDS011;63092;43.582;19.528;2023-01-28T00:13:59;16.20;;;7.93;;
73359;SDS011;63092;43.582;19.528;2023-01-28T00:16:25;17.25;;;8.50;;
73359;SDS011;63092;43.582;19.528;2023-01-28T00:18:51;15.48;;;8.02;;
73359;SDS011;63092;43.582;19.528;2023-01-28T00:21:17;15.48;;;7.82;;
73359;SDS011;63092;43.582;19.528;2023-01-28T00:23:46;13.70;;;6.82;;
73359;SDS011;63092;43.582;19.528;2023-01-28T00:26:15;19.10;;;10.13;;
73359;SDS011;63092;43.582;19.528;2023-01-28T00:28:41;12.15;;;6.72;;
73359;SDS011;63092;43.582;19.528;2023-01-28T00:31:08;13.80;;;7.45;;
73359;SDS011;63092;43.582;19.528;2023-01-28T00:33:36;16.13;;;8.15;;
73359;SDS011;63092;43.582;19.528;2023-01-28T00:36:02;33.30;;;17.27;;
73359;SDS011;63092;43.582;19.528;2023-01-28T00:38:30;12.73;;;6.47;;
73359;SDS011;63092;43.582;19.528;2023-01-28T00:41:07;13.98;;;6.97;;
73359;SDS011;63092;43.582;19.528;2023-01-28T00:43:35;12.48;;;6.45;;
73359;SDS011;63092;43.582;19.528;2023-01-28T00:46:01;14.73;;;8.02;;
73359;SDS011;63092;43.582;19.528;2023-01-28T00:48:28;14.90;;;7.95;;
73359;SDS011;63092;43.582;19.528;2023-01-28T00:50:53;16.00;;;8.00;;
73359;SDS011;63092;43.582;19.528;2023-01-28T00:53:19;13.35;;;6.88;;
73359;SDS011;63092;43.582;19.528;2023-01-28T00:55:45;11.07;;;5.63;;
73359;SDS011;63092;43.582;19.528;2023-01-28T00:58:10;13.85;;;6.93;;
73359;SDS011;63092;43.582;19.528;2023-01-28T01:00:36;13.85;;;6.78;;
73359;SDS011;63092;43.582;19.528;2023-01-28T01:03:02;17.27;;;8.18;;
73359;SDS011;63092;43.582;19.528;2023-01-28T01:05:27;13.60;;;6.80;;
73359;SDS011;63092;43.582;19.528;2023-01-28T01:07:53;16.88;;;7.88;;
73359;SDS011;63092;43.582;19.528;2023-01-28T01:10:19;14.88;;;7.65;;
73359;SDS011;63092;43.582;19.528;2023-01-28T01:12:46;15.55;;;8.35;;
73359;SDS011;63092;43.582;19.528;2023-01-28T01:15:12;18.80;;;9.07;;
73359;SDS011;63092;43.582;19.528;2023-01-28T01:17:40;13.60;;;6.85;;
73359;SDS011;63092;43.582;19.528;2023-01-28T01:20:07;25.60;;;10.93;;
73359;SDS011;63092;43.582;19.528;2023-01-28T01:22:38;15.32;;;7.15;;
73359;SDS011;63092;43.582;19.528;2023-01-28T01:25:04;17.90;;;7.97;;
73359;SDS011;63092;43.582;19.528;2023-01-28T01:27:31;18.15;;;8.20;;
73359;SDS011;63092;43.582;19.528;2023-01-28T01:29:56;16.92;;;7.55;;
73359;SDS011;63092;43.582;19.528;2023-01-28T01:32:23;24.27;;;10.45;;
73359;SDS011;63092;43.582;19.528;2023-01-28T01:34:55;16.02;;;7.15;;
73359;SDS011;63092;43.582;19.528;2023-01-28T01:37:21;15.35;;;7.50;;
73359;SDS011;63092;43.582;19.528;2023-01-28T01:39:47;17.25;;;8.63;;
73359;SDS011;63092;43.582;19.528;2023-01-28T01:42:13;18.80;;;9.93;;
73359;SDS011;63092;43.582;19.528;2023-01-28T01:47:38;12.93;;;6.65;;
73359;SDS011;63092;43.582;19.528;2023-01-28T01:50:13;9.75;;;5.38;;
73359;SDS011;63092;43.582;19.528;2023-01-28T01:52:46;19.02;;;8.27;;
73359;SDS011;63092;43.582;19.528;2023-01-28T01:55:16;14.57;;;7.30;;
73359;SDS011;63092;43.582;19.528;2023-01-28T01:57:44;17.98;;;8.90;;
73359;SDS011;63092;43.582;19.528;2023-01-28T02:00:12;13.95;;;6.32;;
73359;SDS011;63092;43.582;19.528;2023-01-28T02:02:42;11.35;;;5.50;;
73359;SDS011;63092;43.582;19.528;2023-01-28T02:05:12;19.02;;;7.63;;
73359;SDS011;63092;43.582;19.528;2023-01-28T02:07:40;10.77;;;5.65;;
73359;SDS011;63092;43.582;19.528;2023-01-28T02:10:07;8.43;;;4.97;;
73359;SDS011;63092;43.582;19.528;2023-01-28T02:12:34;14.15;;;6.50;;
73359;SDS011;63092;43.582;19.528;2023-01-28T02:15:07;14.27;;;6.10;;
73359;SDS011;63092;43.582;19.528;2023-01-28T02:17:36;28.05;;;11.13;;
73359;SDS011;63092;43.582;19.528;2023-01-28T02:20:09;37.05;;;13.60;;
73359;SDS011;63092;43.582;19.528;2023-01-28T02:33:51;25.90;;;11.55;;
73359;SDS011;63092;43.582;19.528;2023-01-28T02:36:31;17.90;;;8.05;;
73359;SDS011;63092;43.582;19.528;2023-01-28T02:39:14;11.73;;;5.65;;
73359;SDS011;63092;43.582;19.528;2023-01-28T02:41:57;11.52;;;5.68;;
73359;SDS011;63092;43.582;19.528;2023-01-28T02:44:28;10.90;;;5.43;;
73359;SDS011;63092;43.582;19.528;2023-01-28T02:46:54;17.35;;;7.95;;
73359;SDS011;63092;43.582;19.528;2023-01-28T02:49:42;10.32;;;5.65;;
73359;SDS011;63092;43.582;19.528;2023-01-28T02:55:44;12.23;;;5.85;;
73359;SDS011;63092;43.582;19.528;2023-01-28T03:01:18;10.60;;;5.78;;
73359;SDS011;63092;43.582;19.528;2023-01-28T03:03:54;11.23;;;5.97;;
73359;SDS011;63092;43.582;19.528;2023-01-28T03:06:37;15.05;;;7.60;;
73359;SDS011;63092;43.582;19.528;2023-01-28T03:09:09;13.15;;;7.13;;
73359;SDS011;63092;43.582;19.528;2023-01-28T03:11:55;15.60;;;7.65;;
73359;SDS011;63092;43.582;19.528;2023-01-28T03:15:00;12.50;;;6.13;;
73359;SDS011;63092;43.582;19.528;2023-01-28T03:20:37;19.13;;;8.13;;
73359;SDS011;63092;43.582;19.528;2023-01-28T03:23:36;10.57;;;5.55;;
73359;SDS011;63092;43.582;19.528;2023-01-28T03:26:26;11.40;;;5.80;;
73359;SDS011;63092;43.582;19.528;2023-01-28T03:29:14;11.13;;;5.75;;
73359;SDS011;63092;43.582;19.528;2023-01-28T03:31:59;12.07;;;6.38;;
73359;SDS011;63092;43.582;19.528;2023-01-28T03:34:45;16.35;;;7.75;;
73359;SDS011;63092;43.582;19.528;2023-01-28T03:37:30;14.52;;;6.97;;
73359;SDS011;63092;43.582;19.528;2023-01-28T03:40:01;29.85;;;12.18;;
73359;SDS011;63092;43.582;19.528;2023-01-28T03:42:29;13.18;;;6.60;;
73359;SDS011;63092;43.582;19.528;2023-01-28T03:44:55;18.95;;;8.82;;
73359;SDS011;63092;43.582;19.528;2023-01-28T03:47:22;15.00;;;6.30;;
73359;SDS011;63092;43.582;19.528;2023-01-28T03:49:50;13.68;;;7.10;;
73359;SDS011;63092;43.582;19.528;2023-01-28T03:52:18;13.15;;;6.82;;
73359;SDS011;63092;43.582;19.528;2023-01-28T03:54:45;12.73;;;6.40;;
73359;SDS011;63092;43.582;19.528;2023-01-28T03:57:15;13.23;;;6.20;;
73359;SDS011;63092;43.582;19.528;2023-01-28T03:59:42;12.70;;;5.43;;
73359;SDS011;63092;43.582;19.528;2023-01-28T04:02:08;12.20;;;5.70;;
73359;SDS011;63092;43.582;19.528;2023-01-28T04:04:38;11.50;;;5.13;;
73359;SDS011;63092;43.582;19.528;2023-01-28T04:07:05;8.52;;;4.90;;
73359;SDS011;63092;43.582;19.528;2023-01-28T04:09:40;11.57;;;5.95;;
73359;SDS011;63092;43.582;19.528;2023-01-28T04:12:07;15.77;;;6.57;;
73359;SDS011;63092;43.582;19.528;2023-01-28T04:14:34;12.93;;;6.63;;
73359;SDS011;63092;43.582;19.528;2023-01-28T04:17:00;13.38;;;7.65;;
73359;SDS011;63092;43.582;19.528;2023-01-28T04:19:26;9.27;;;5.38;;
73359;SDS011;63092;43.582;19.528;2023-01-28T04:21:52;10.88;;;5.53;;
73359;SDS011;63092;43.582;19.528;2023-01-28T04:24:19;11.57;;;5.43;;
73359;SDS011;63092;43.582;19.528;2023-01-28T04:26:45;9.43;;;5.47;;
73359;SDS011;63092;43.582;19.528;2023-01-28T04:29:11;10.02;;;5.40;;
73359;SDS011;63092;43.582;19.528;2023-01-28T04:31:37;11.10;;;5.50;;
73359;SDS011;63092;43.582;19.528;2023-01-28T04:34:02;12.20;;;5.30;;
73359;SDS011;63092;43.582;19.528;2023-01-28T04:36:28;12.35;;;6.30;;
73359;SDS011;63092;43.582;19.528;2023-01-28T04:38:54;11.05;;;5.97;;
73359;SDS011;63092;43.582;19.528;2023-01-28T04:41:19;12.40;;;6.28;;
73359;SDS011;63092;43.582;19.528;2023-01-28T04:43:46;14.00;;;7.18;;
73359;SDS011;63092;43.582;19.528;2023-01-28T04:46:13;13.57;;;6.38;;
73359;SDS011;63092;43.582;19.528;2023-01-28T04:48:39;12.20;;;6.05;;
73359;SDS011;63092;43.582;19.528;2023-01-28T04:51:05;14.48;;;7.40;;
73359;SDS011;63092;43.582;19.528;2023-01-28T04:53:31;17.67;;;9.32;;
73359;SDS011;63092;43.582;19.528;2023-01-28T04:55:57;13.93;;;6.85;;
73359;SDS011;63092;43.582;19.528;2023-01-28T04:58:23;14.32;;;7.30;;
73359;SDS011;63092;43.582;19.528;2023-01-28T05:00:53;15.60;;;8.00;;
73359;SDS011;63092;43.582;19.528;2023-01-28T05:03:20;13.52;;;6.50;;
73359;SDS011;63092;43.582;19.528;2023-01-28T05:05:45;11.05;;;5.80;;
73359;SDS011;63092;43.582;19.528;2023-01-28T05:08:11;11.95;;;5.80;;
73359;SDS011;63092;43.582;19.528;2023-01-28T05:10:36;8.02;;;4.65;;
73359;SDS011;63092;43.582;19.528;2023-01-28T05:13:04;9.43;;;5.35;;
73359;SDS011;63092;43.582;19.528;2023-01-28T05:15:30;11.35;;;5.82;;
73359;SDS011;63092;43.582;19.528;2023-01-28T05:17:56;10.15;;;5.43;;
73359;SDS011;63092;43.582;19.528;2023-01-28T05:20:21;11.30;;;5.75;;
73359;SDS011;63092;43.582;19.528;2023-01-28T05:22:47;10.55;;;5.38;;
73359;SDS011;63092;43.582;19.528;2023-01-28T05:25:13;12.90;;;6.82;;
73359;SDS011;63092;43.582;19.528;2023-01-28T05:27:38;12.68;;;6.15;;
73359;SDS011;63092;43.582;19.528;2023-01-28T05:30:04;12.50;;;6.45;;
73359;SDS011;63092;43.582;19.528;2023-01-28T05:32:31;13.38;;;6.78;;
73359;SDS011;63092;43.582;19.528;2023-01-28T05:34:56;12.77;;;6.65;;
73359;SDS011;63092;43.582;19.528;2023-01-28T05:37:22;13.65;;;6.93;;
73359;SDS011;63092;43.582;19.528;2023-01-28T05:39:48;16.50;;;7.93;;
73359;SDS011;63092;43.582;19.528;2023-01-28T05:42:13;18.48;;;8.00;;
73359;SDS011;63092;43.582;19.528;2023-01-28T05:44:39;15.98;;;7.22;;
73359;SDS011;63092;43.582;19.528;2023-01-28T05:47:06;15.77;;;7.65;;
73359;SDS011;63092;43.582;19.528;2023-01-28T05:49:31;24.80;;;13.52;;
73359;SDS011;63092;43.582;19.528;2023-01-28T05:51:57;21.65;;;12.07;;
73359;SDS011;63092;43.582;19.528;2023-01-28T05:54:23;17.58;;;9.40;;
73359;SDS011;63092;43.582;19.528;2023-01-28T05:56:48;17.08;;;8.70;;
73359;SDS011;63092;43.582;19.528;2023-01-28T05:59:14;20.88;;;10.70;;
73359;SDS011;63092;43.582;19.528;2023-01-28T06:01:40;18.73;;;9.93;;
73359;SDS011;63092;43.582;19.528;2023-01-28T06:04:06;17.27;;;9.15;;
73359;SDS011;63092;43.582;19.528;2023-01-28T06:06:31;18.52;;;9.68;;
73359;SDS011;63092;43.582;19.528;2023-01-28T06:08:57;16.33;;;9.27;;
73359;SDS011;63092;43.582;19.528;2023-01-28T06:11:23;16.13;;;8.98;;
73359;SDS011;63092;43.582;19.528;2023-01-28T06:13:48;16.98;;;9.02;;
73359;SDS011;63092;43.582;19.528;2023-01-28T06:16:14;21.83;;;11.48;;
73359;SDS011;63092;43.582;19.528;2023-01-28T06:18:40;31.35;;;14.82;;
73359;SDS011;63092;43.582;19.528;2023-01-28T06:21:06;29.70;;;13.70;;
73359;SDS011;63092;43.582;19.528;2023-01-28T06:23:32;31.75;;;13.98;;
73359;SDS011;63092;43.582;19.528;2023-01-28T06:25:57;35.40;;;14.75;;
73359;SDS011;63092;43.582;19.528;2023-01-28T06:28:23;26.50;;;11.65;;
73359;SDS011;63092;43.582;19.528;2023-01-28T06:30:50;17.90;;;9.07;;
73359;SDS011;63092;43.582;19.528;2023-01-28T06:33:17;47.25;;;14.98;;
73359;SDS011;63092;43.582;19.528;2023-01-28T06:35:43;25.30;;;8.48;;
73359;SDS011;63092;43.582;19.528;2023-01-28T06:38:09;13.30;;;6.88;;
73359;SDS011;63092;43.582;19.528;2023-01-28T06:40:35;11.82;;;6.57;;
73359;SDS011;63092;43.582;19.528;2023-01-28T06:43:01;12.00;;;6.18;;
73359;SDS011;63092;43.582;19.528;2023-01-28T06:45:27;72.07;;;29.02;;
73359;SDS011;63092;43.582;19.528;2023-01-28T06:47:53;37.38;;;18.10;;
73359;SDS011;63092;43.582;19.528;2023-01-28T06:50:19;24.02;;;12.23;;
73359;SDS011;63092;43.582;19.528;2023-01-28T06:52:44;18.45;;;10.02;;
73359;SDS011;63092;43.582;19.528;2023-01-28T06:55:10;14.07;;;7.97;;
73359;SDS011;63092;43.582;19.528;2023-01-28T06:57:36;16.45;;;9.43;;
73359;SDS011;63092;43.582;19.528;2023-01-28T07:00:03;16.15;;;8.50;;
73359;SDS011;63092;43.582;19.528;2023-01-28T07:02:30;15.23;;;8.35;;
73359;SDS011;63092;43.582;19.528;2023-01-28T07:04:56;20.52;;;11.43;;
73359;SDS011;63092;43.582;19.528;2023-01-28T07:07:22;16.60;;;9.02;;
73359;SDS011;63092;43.582;19.528;2023-01-28T07:09:47;17.52;;;10.82;;
73359;SDS011;63092;43.582;19.528;2023-01-28T07:12:13;15.98;;;9.15;;
73359;SDS011;63092;43.582;19.528;2023-01-28T07:14:39;22.13;;;13.95;;
73359;SDS011;63092;43.582;19.528;2023-01-28T07:17:05;17.23;;;9.27;;
73359;SDS011;63092;43.582;19.528;2023-01-28T07:19:30;58.85;;;31.27;;
73359;SDS011;63092;43.582;19.528;2023-01-28T07:21:56;35.30;;;18.48;;
73359;SDS011;63092;43.582;19.528;2023-01-28T07:24:24;20.75;;;10.68;;
73359;SDS011;63092;43.582;19.528;2023-01-28T07:26:51;20.05;;;10.07;;
73359;SDS011;63092;43.582;19.528;2023-01-28T07:29:17;17.20;;;9.45;;
73359;SDS011;63092;43.582;19.528;2023-01-28T07:31:43;20.92;;;10.93;;
73359;SDS011;63092;43.582;19.528;2023-01-28T07:34:08;16.55;;;9.05;;
73359;SDS011;63092;43.582;19.528;2023-01-28T07:36:34;13.95;;;8.80;;
73359;SDS011;63092;43.582;19.528;2023-01-28T07:39:00;17.13;;;9.93;;
73359;SDS011;63092;43.582;19.528;2023-01-28T07:41:25;20.02;;;10.27;;
73359;SDS011;63092;43.582;19.528;2023-01-28T07:43:51;22.83;;;12.20;;
73359;SDS011;63092;43.582;19.528;2023-01-28T07:46:17;34.65;;;16.52;;
73359;SDS011;63092;43.582;19.528;2023-01-28T07:48:43;53.00;;;21.60;;
73359;SDS011;63092;43.582;19.528;2023-01-28T07:51:09;35.70;;;17.95;;
73359;SDS011;63092;43.582;19.528;2023-01-28T07:53:35;23.83;;;13.30;;
73359;SDS011;63092;43.582;19.528;2023-01-28T07:56:01;26.27;;;14.50;;
73359;SDS011;63092;43.582;19.528;2023-01-28T07:58:28;28.30;;;15.32;;
73359;SDS011;63092;43.582;19.528;2023-01-28T08:00:56;26.20;;;14.65;;
73359;SDS011;63092;43.582;19.528;2023-01-28T08:03:23;19.85;;;10.80;;
73359;SDS011;63092;43.582;19.528;2023-01-28T08:05:50;51.22;;;23.88;;
73359;SDS011;63092;43.582;19.528;2023-01-28T08:08:17;28.90;;;15.50;;
73359;SDS011;63092;43.582;19.528;2023-01-28T08:10:44;26.35;;;14.30;;
73359;SDS011;63092;43.582;19.528;2023-01-28T08:13:10;21.40;;;11.00;;
73359;SDS011;63092;43.582;19.528;2023-01-28T08:15:37;24.33;;;11.82;;
73359;SDS011;63092;43.582;19.528;2023-01-28T08:18:04;21.52;;;10.63;;
73359;SDS011;63092;43.582;19.528;2023-01-28T08:20:31;17.77;;;9.00;;
73359;SDS011;63092;43.582;19.528;2023-01-28T08:23:03;24.17;;;12.02;;
73359;SDS011;63092;43.582;19.528;2023-01-28T08:25:33;44.85;;;24.65;;
73359;SDS011;63092;43.582;19.528;2023-01-28T08:27:59;19.55;;;9.73;;
73359;SDS011;63092;43.582;19.528;2023-01-28T08:30:25;52.03;;;22.77;;
73359;SDS011;63092;43.582;19.528;2023-01-28T08:32:50;37.22;;;17.85;;
73359;SDS011;63092;43.582;19.528;2023-01-28T08:35:20;30.92;;;14.93;;
73359;SDS011;63092;43.582;19.528;2023-01-28T08:37:46;30.70;;;12.63;;
73359;SDS011;63092;43.582;19.528;2023-01-28T08:40:12;34.58;;;18.17;;
73359;SDS011;63092;43.582;19.528;2023-01-28T08:42:37;36.80;;;15.55;;
73359;SDS011;63092;43.582;19.528;2023-01-28T08:45:03;29.23;;;14.90;;
73359;SDS011;63092;43.582;19.528;2023-01-28T08:47:29;22.27;;;10.63;;
73359;SDS011;63092;43.582;19.528;2023-01-28T08:49:55;22.17;;;11.00;;
73359;SDS011;63092;43.582;19.528;2023-01-28T08:52:20;17.55;;;9.15;;
73359;SDS011;63092;43.582;19.528;2023-01-28T08:54:46;24.63;;;14.00;;
73359;SDS011;63092;43.582;19.528;2023-01-28T08:57:12;25.10;;;13.90;;
73359;SDS011;63092;43.582;19.528;2023-01-28T08:59:37;25.95;;;14.43;;
73359;SDS011;63092;43.582;19.528;2023-01-28T09:02:11;25.52;;;15.40;;
73359;SDS011;63092;43.582;19.528;2023-01-28T09:04:37;22.42;;;12.73;;
73359;SDS011;63092;43.582;19.528;2023-01-28T09:07:03;31.60;;;17.15;;
73359;SDS011;63092;43.582;19.528;2023-01-28T09:09:29;31.25;;;17.08;;
73359;SDS011;63092;43.582;19.528;2023-01-28T09:11:55;25.25;;;13.85;;
73359;SDS011;63092;43.582;19.528;2023-01-28T09:14:21;27.02;;;13.35;;
73359;SDS011;63092;43.582;19.528;2023-01-28T09:16:46;27.98;;;15.13;;
73359;SDS011;63092;43.582;19.528;2023-01-28T09:19:12;20.10;;;10.02;;
73359;SDS011;63092;43.582;19.528;2023-01-28T09:21:38;22.80;;;12.68;;
73359;SDS011;63092;43.582;19.528;2023-01-28T09:24:04;24.20;;;13.00;;
73359;SDS011;63092;43.582;19.528;2023-01-28T09:26:30;27.05;;;13.43;;
73359;SDS011;63092;43.582;19.528;2023-01-28T09:28:58;38.53;;;21.95;;
73359;SDS011;63092;43.582;19.528;2023-01-28T09:31:24;33.08;;;17.67;;
73359;SDS011;63092;43.582;19.528;2023-01-28T09:33:49;33.40;;;19.60;;
73359;SDS011;63092;43.582;19.528;2023-01-28T09:36:20;34.65;;;20.23;;
73359;SDS011;63092;43.582;19.528;2023-01-28T09:38:46;47.95;;;25.63;;
73359;SDS011;63092;43.582;19.528;2023-01-28T09:41:36;41.97;;;21.92;;
73359;SDS011;63092;43.582;19.528;2023-01-28T09:44:24;21.85;;;12.00;;
73359;SDS011;63092;43.582;19.528;2023-01-28T09:47:53;35.78;;;20.70;;
73359;SDS011;63092;43.582;19.528;2023-01-28T09:49:59;23.38;;;13.45;;
73359;SDS011;63092;43.582;19.528;2023-01-28T09:52:29;30.08;;;18.05;;
73359;SDS011;63092;43.582;19.528;2023-01-28T09:55:02;35.45;;;18.98;;
73359;SDS011;63092;43.582;19.528;2023-01-28T10:00:16;26.67;;;14.98;;
73359;SDS011;63092;43.582;19.528;2023-01-28T10:10:53;27.63;;;15.70;;
73359;SDS011;63092;43.582;19.528;2023-01-28T10:16:23;55.03;;;28.40;;
73359;SDS011;63092;43.582;19.528;2023-01-28T10:19:02;31.92;;;17.60;;
73359;SDS011;63092;43.582;19.528;2023-01-28T10:21:46;25.20;;;13.75;;
73359;SDS011;63092;43.582;19.528;2023-01-28T10:24:23;25.60;;;13.82;;
73359;SDS011;63092;43.582;19.528;2023-01-28T10:27:00;31.55;;;17.10;;
73359;SDS011;63092;43.582;19.528;2023-01-28T10:29:28;21.88;;;10.93;;
73359;SDS011;63092;43.582;19.528;2023-01-28T10:32:11;23.73;;;11.68;;
73359;SDS011;63092;43.582;19.528;2023-01-28T10:34:45;28.33;;;15.73;;
73359;SDS011;63092;43.582;19.528;2023-01-28T10:37:12;31.55;;;18.08;;
73359;SDS011;63092;43.582;19.528;2023-01-28T10:39:40;26.65;;;15.25;;
73359;SDS011;63092;43.582;19.528;2023-01-28T10:42:15;22.38;;;10.68;;
73359;SDS011;63092;43.582;19.528;2023-01-28T10:44:56;25.33;;;15.02;;
73359;SDS011;63092;43.582;19.528;2023-01-28T10:47:36;18.20;;;10.57;;
73359;SDS011;63092;43.582;19.528;2023-01-28T10:50:10;21.80;;;11.50;;
73359;SDS011;63092;43.582;19.528;2023-01-28T10:52:52;14.60;;;8.82;;
73359;SDS011;63092;43.582;19.528;2023-01-28T10:55:23;18.50;;;10.32;;
73359;SDS011;63092;43.582;19.528;2023-01-28T10:57:52;23.83;;;14.75;;
73359;SDS011;63092;43.582;19.528;2023-01-28T11:02:44;22.55;;;11.65;;
73359;SDS011;63092;43.582;19.528;2023-01-28T11:05:16;28.83;;;12.77;;
73359;SDS011;63092;43.582;19.528;2023-01-28T11:07:45;21.63;;;10.55;;
73359;SDS011;63092;43.582;19.528;2023-01-28T11:10:33;16.77;;;7.63;;
73359;SDS011;63092;43.582;19.528;2023-01-28T11:13:01;16.25;;;9.20;;
73359;SDS011;63092;43.582;19.528;2023-01-28T11:15:28;22.35;;;12.23;;
73359;SDS011;63092;43.582;19.528;2023-01-28T11:18:04;17.55;;;9.40;;
73359;SDS011;63092;43.582;19.528;2023-01-28T11:20:42;25.63;;;14.43;;
73359;SDS011;63092;43.582;19.528;2023-01-28T11:23:26;19.77;;;12.18;;
73359;SDS011;63092;43.582;19.528;2023-01-28T11:26:02;20.08;;;11.43;;
73359;SDS011;63092;43.582;19.528;2023-01-28T11:28:28;17.73;;;8.57;;
73359;SDS011;63092;43.582;19.528;2023-01-28T11:30:55;17.00;;;10.25;;
73359;SDS011;63092;43.582;19.528;2023-01-28T11:33:27;15.50;;;8.52;;
73359;SDS011;63092;43.582;19.528;2023-01-28T11:36:20;19.52;;;11.02;;
73359;SDS011;63092;43.582;19.528;2023-01-28T11:38:48;26.83;;;13.80;;
73359;SDS011;63092;43.582;19.528;2023-01-28T11:41:28;25.13;;;14.63;;
73359;SDS011;63092;43.582;19.528;2023-01-28T11:51:41;15.40;;;9.20;;
73359;SDS011;63092;43.582;19.528;2023-01-28T11:59:56;21.67;;;11.20;;
73359;SDS011;63092;43.582;19.528;2023-01-28T12:08:02;18.27;;;10.30;;
73359;SDS011;63092;43.582;19.528;2023-01-28T12:11:41;14.25;;;8.23;;
73359;SDS011;63092;43.582;19.528;2023-01-28T12:25:18;27.00;;;12.15;;
73359;SDS011;63092;43.582;19.528;2023-01-28T12:30:38;16.02;;;9.48;;
73359;SDS011;63092;43.582;19.528;2023-01-28T12:40:15;23.15;;;12.57;;
73359;SDS011;63092;43.582;19.528;2023-01-28T12:45:14;32.28;;;16.67;;
73359;SDS011;63092;43.582;19.528;2023-01-28T12:47:41;27.48;;;15.13;;
73359;SDS011;63092;43.582;19.528;2023-01-28T12:50:26;34.42;;;17.25;;
73359;SDS011;63092;43.582;19.528;2023-01-28T12:52:57;21.17;;;12.30;;
73359;SDS011;63092;43.582;19.528;2023-01-28T12:55:34;18.92;;;9.75;;
73359;SDS011;63092;43.582;19.528;2023-01-28T12:58:06;121.75;;;34.58;;
73359;SDS011;63092;43.582;19.528;2023-01-28T13:00:43;26.20;;;12.98;;
73359;SDS011;63092;43.582;19.528;2023-01-28T13:03:47;33.78;;;15.75;;
73359;SDS011;63092;43.582;19.528;2023-01-28T13:06:09;21.08;;;11.05;;
73359;SDS011;63092;43.582;19.528;2023-01-28T13:08:39;18.63;;;9.70;;
73359;SDS011;63092;43.582;19.528;2023-01-28T13:11:05;22.67;;;11.27;;
73359;SDS011;63092;43.582;19.528;2023-01-28T13:13:39;17.95;;;9.00;;
73359;SDS011;63092;43.582;19.528;2023-01-28T13:16:08;45.07;;;19.87;;
73359;SDS011;63092;43.582;19.528;2023-01-28T13:21:04;43.30;;;19.38;;
73359;SDS011;63092;43.582;19.528;2023-01-28T13:23:49;32.25;;;15.48;;
73359;SDS011;63092;43.582;19.528;2023-01-28T13:26:28;34.17;;;18.73;;
73359;SDS011;63092;43.582;19.528;2023-01-28T13:29:06;34.15;;;16.85;;
73359;SDS011;63092;43.582;19.528;2023-01-28T13:31:39;43.67;;;21.65;;
73359;SDS011;63092;43.582;19.528;2023-01-28T13:34:08;38.72;;;19.98;;
73359;SDS011;63092;43.582;19.528;2023-01-28T13:36:50;34.95;;;16.90;;
73359;SDS011;63092;43.582;19.528;2023-01-28T13:46:54;34.90;;;17.50;;
73359;SDS011;63092;43.582;19.528;2023-01-28T13:49:37;61.53;;;24.90;;
73359;SDS011;63092;43.582;19.528;2023-01-28T13:54:34;32.35;;;16.38;;
73359;SDS011;63092;43.582;19.528;2023-01-28T14:13:54;202.85;;;72.43;;
73359;SDS011;63092;43.582;19.528;2023-01-28T14:16:34;29.42;;;15.55;;
73359;SDS011;63092;43.582;19.528;2023-01-28T14:19:16;37.30;;;18.45;;
73359;SDS011;63092;43.582;19.528;2023-01-28T14:21:47;74.72;;;37.85;;
73359;SDS011;63092;43.582;19.528;2023-01-28T14:24:15;59.67;;;30.33;;
73359;SDS011;63092;43.582;19.528;2023-01-28T14:32:12;42.70;;;22.85;;
73359;SDS011;63092;43.582;19.528;2023-01-28T14:34:40;51.58;;;28.60;;
73359;SDS011;63092;43.582;19.528;2023-01-28T14:37:08;47.70;;;25.90;;
73359;SDS011;63092;43.582;19.528;2023-01-28T14:39:43;43.38;;;22.50;;
73359;SDS011;63092;43.582;19.528;2023-01-28T14:42:18;29.55;;;16.23;;
73359;SDS011;63092;43.582;19.528;2023-01-28T14:45:02;48.70;;;25.65;;
73359;SDS011;63092;43.582;19.528;2023-01-28T14:47:48;36.03;;;20.75;;
73359;SDS011;63092;43.582;19.528;2023-01-28T14:58:59;74.82;;;38.80;;
73359;SDS011;63092;43.582;19.528;2023-01-28T15:01:31;48.60;;;24.15;;
73359;SDS011;63092;43.582;19.528;2023-01-28T15:03:56;93.80;;;43.72;;
73359;SDS011;63092;43.582;19.528;2023-01-28T15:06:23;64.13;;;34.53;;
73359;SDS011;63092;43.582;19.528;2023-01-28T15:09:04;86.38;;;40.17;;
73359;SDS011;63092;43.582;19.528;2023-01-28T15:11:31;102.28;;;47.17;;
73359;SDS011;63092;43.582;19.528;2023-01-28T15:13:58;169.93;;;70.25;;
73359;SDS011;63092;43.582;19.528;2023-01-28T15:16:24;72.55;;;37.97;;
73359;SDS011;63092;43.582;19.528;2023-01-28T15:18:53;101.78;;;58.35;;
73359;SDS011;63092;43.582;19.528;2023-01-28T15:21:21;76.82;;;45.60;;
73359;SDS011;63092;43.582;19.528;2023-01-28T15:23:50;54.10;;;32.20;;
73359;SDS011;63092;43.582;19.528;2023-01-28T15:26:20;106.75;;;48.28;;
73359;SDS011;63092;43.582;19.528;2023-01-28T15:28:49;189.43;;;88.85;;
73359;SDS011;63092;43.582;19.528;2023-01-28T15:31:20;174.07;;;76.88;;
73359;SDS011;63092;43.582;19.528;2023-01-28T15:36:42;138.35;;;64.57;;
73359;SDS011;63092;43.582;19.528;2023-01-28T15:39:21;137.80;;;61.08;;
73359;SDS011;63092;43.582;19.528;2023-01-28T15:41:49;122.47;;;55.15;;
73359;SDS011;63092;43.582;19.528;2023-01-28T15:44:45;72.82;;;32.65;;
73359;SDS011;63092;43.582;19.528;2023-01-28T15:49:51;70.32;;;33.70;;
73359;SDS011;63092;43.582;19.528;2023-01-28T15:52:19;98.63;;;42.78;;
73359;SDS011;63092;43.582;19.528;2023-01-28T15:54:47;96.35;;;42.25;;
73359;SDS011;63092;43.582;19.528;2023-01-28T15:57:29;67.32;;;32.35;;
73359;SDS011;63092;43.582;19.528;2023-01-28T16:02:31;61.00;;;32.20;;
73359;SDS011;63092;43.582;19.528;2023-01-28T16:05:01;29.15;;;16.38;;
73359;SDS011;63092;43.582;19.528;2023-01-28T16:07:29;33.70;;;18.85;;
73359;SDS011;63092;43.582;19.528;2023-01-28T16:09:57;36.67;;;20.03;;
73359;SDS011;63092;43.582;19.528;2023-01-28T16:12:24;37.20;;;19.65;;
73359;SDS011;63092;43.582;19.528;2023-01-28T16:14:53;33.65;;;18.95;;
73359;SDS011;63092;43.582;19.528;2023-01-28T16:17:21;49.75;;;25.70;;
73359;SDS011;63092;43.582;19.528;2023-01-28T16:20:01;62.75;;;31.35;;
73359;SDS011;63092;43.582;19.528;2023-01-28T16:22:33;45.20;;;25.17;;
73359;SDS011;63092;43.582;19.528;2023-01-28T16:25:22;34.28;;;18.40;;
73359;SDS011;63092;43.582;19.528;2023-01-28T16:27:49;32.13;;;16.83;;
73359;SDS011;63092;43.582;19.528;2023-01-28T16:30:16;44.55;;;23.83;;
73359;SDS011;63092;43.582;19.528;2023-01-28T16:32:42;39.92;;;22.23;;
73359;SDS011;63092;43.582;19.528;2023-01-28T16:35:13;55.28;;;30.60;;
73359;SDS011;63092;43.582;19.528;2023-01-28T16:37:42;54.35;;;30.08;;
73359;SDS011;63092;43.582;19.528;2023-01-28T16:40:08;91.85;;;40.42;;
73359;SDS011;63092;43.582;19.528;2023-01-28T16:42:38;90.05;;;39.97;;
73359;SDS011;63092;43.582;19.528;2023-01-28T16:45:04;66.68;;;32.05;;